sensor_id;sensor_type;location;lat;lon;timestamp;P1;durP1;ratioP1;P2;durP2;ratioP2
23148;SDS011;11743;51.228;22.498;2022-11-20T00:00:08;70.63;;;33.20;;
23148;SDS011;11743;51.228;22.498;2022-11-20T00:00:30;70.32;;;33.33;;
23148;SDS011;11743;51.228;22.498;2022-11-20T00:00:52;71.07;;;32.33;;
23148;SDS011;11743;51.228;22.498;2022-11-20T00:01:15;74.25;;;33.58;;
23148;SDS011;11743;51.228;22.498;2022-11-20T00:01:39;70.03;;;32.55;;
23148;SDS011;11743;51.228;22.498;2022-11-20T00:02:01;77.82;;;35.38;;
23148;SDS011;11743;51.228;22.498;2022-11-20T00:02:23;74.55;;;34.33;;
23148;SDS011;11743;51.228;22.498;2022-11-20T00:02:45;72.25;;;32.10;;
23148;SDS011;11743;51.228;22.498;2022-11-20T00:03:07;69.50;;;32.80;;
23148;SDS011;11743;51.228;22.498;2022-11-20T00:03:29;71.57;;;32.63;;
23148;SDS011;11743;51.228;22.498;2022-11-20T00:03:52;67.75;;;31.80;;
23148;SDS011;11743;51.228;22.498;2022-11-20T00:04:15;70.40;;;32.63;;
23148;SDS011;11743;51.228;22.498;2022-11-20T00:04:37;71.88;;;32.50;;
23148;SDS011;11743;51.228;22.498;2022-11-20T00:05:00;71.13;;;32.08;;
23148;SDS011;11743;51.228;22.498;2022-11-20T00:05:22;70.43;;;32.45;;
23148;SDS011;11743;51.228;22.498;2022-11-20T00:05:44;70.65;;;32.45;;
23148;SDS011;11743;51.228;22.498;2022-11-20T00:06:08;64.60;;;31.17;;
23148;SDS011;11743;51.228;22.498;2022-11-20T00:06:31;65.22;;;31.88;;
23148;SDS011;11743;51.228;22.498;2022-11-20T00:06:53;66.13;;;31.15;;
23148;SDS011;11743;51.228;22.498;2022-11-20T00:07:16;67.97;;;31.10;;
23148;SDS011;11743;51.228;22.498;2022-11-20T00:07:38;67.32;;;30.58;;
23148;SDS011;11743;51.228;22.498;2022-11-20T00:08:00;64.35;;;30.35;;
23148;SDS011;11743;51.228;22.498;2022-11-20T00:08:22;71.78;;;32.42;;
23148;SDS011;11743;51.228;22.498;2022-11-20T00:08:44;68.22;;;32.10;;
23148;SDS011;11743;51.228;22.498;2022-11-20T00:09:09;67.00;;;31.55;;
23148;SDS011;11743;51.228;22.498;2022-11-20T00:09:31;72.22;;;32.58;;
23148;SDS011;11743;51.228;22.498;2022-11-20T00:09:53;70.05;;;32.53;;
23148;SDS011;11743;51.228;22.498;2022-11-20T00:10:15;68.85;;;32.15;;
23148;SDS011;11743;51.228;22.498;2022-11-20T00:10:38;70.32;;;31.95;;
23148;SDS011;11743;51.228;22.498;2022-11-20T00:11:22;70.93;;;31.75;;
23148;SDS011;11743;51.228;22.498;2022-11-20T00:11:43;71.15;;;31.88;;
23148;SDS011;11743;51.228;22.498;2022-11-20T00:12:05;69.00;;;32.28;;
23148;SDS011;11743;51.228;22.498;2022-11-20T00:12:27;68.80;;;32.47;;
23148;SDS011;11743;51.228;22.498;2022-11-20T00:12:49;72.30;;;32.70;;
23148;SDS011;11743;51.228;22.498;2022-11-20T00:13:11;78.85;;;35.17;;
23148;SDS011;11743;51.228;22.498;2022-11-20T00:13:33;83.28;;;36.25;;
23148;SDS011;11743;51.228;22.498;2022-11-20T00:13:56;82.13;;;35.83;;
23148;SDS011;11743;51.228;22.498;2022-11-20T00:14:19;74.95;;;34.83;;
23148;SDS011;11743;51.228;22.498;2022-11-20T00:14:40;83.93;;;38.55;;
23148;SDS011;11743;51.228;22.498;2022-11-20T00:15:03;84.10;;;37.17;;
23148;SDS011;11743;51.228;22.498;2022-11-20T00:15:25;75.45;;;34.35;;
23148;SDS011;11743;51.228;22.498;2022-11-20T00:15:47;81.63;;;35.45;;
23148;SDS011;11743;51.228;22.498;2022-11-20T00:16:10;81.65;;;36.03;;
23148;SDS011;11743;51.228;22.498;2022-11-20T00:16:32;92.65;;;37.95;;
23148;SDS011;11743;51.228;22.498;2022-11-20T00:16:55;86.40;;;38.58;;
23148;SDS011;11743;51.228;22.498;2022-11-20T00:17:16;81.38;;;35.63;;
23148;SDS011;11743;51.228;22.498;2022-11-20T00:17:38;76.65;;;33.20;;
23148;SDS011;11743;51.228;22.498;2022-11-20T00:18:00;79.90;;;33.53;;
23148;SDS011;11743;51.228;22.498;2022-11-20T00:18:22;79.32;;;34.08;;
23148;SDS011;11743;51.228;22.498;2022-11-20T00:18:44;78.32;;;33.95;;
23148;SDS011;11743;51.228;22.498;2022-11-20T00:19:06;79.45;;;35.58;;
23148;SDS011;11743;51.228;22.498;2022-11-20T00:19:28;77.07;;;35.55;;
23148;SDS011;11743;51.228;22.498;2022-11-20T00:19:50;82.97;;;35.28;;
23148;SDS011;11743;51.228;22.498;2022-11-20T00:20:13;79.55;;;34.58;;
23148;SDS011;11743;51.228;22.498;2022-11-20T00:20:35;77.72;;;35.10;;
23148;SDS011;11743;51.228;22.498;2022-11-20T00:21:03;73.22;;;33.08;;
23148;SDS011;11743;51.228;22.498;2022-11-20T00:21:26;75.60;;;34.80;;
23148;SDS011;11743;51.228;22.498;2022-11-20T00:21:49;73.55;;;33.95;;
23148;SDS011;11743;51.228;22.498;2022-11-20T00:22:12;72.97;;;33.85;;
23148;SDS011;11743;51.228;22.498;2022-11-20T00:22:34;76.13;;;33.90;;
23148;SDS011;11743;51.228;22.498;2022-11-20T00:22:56;75.18;;;33.78;;
23148;SDS011;11743;51.228;22.498;2022-11-20T00:23:18;75.95;;;33.92;;
23148;SDS011;11743;51.228;22.498;2022-11-20T00:23:41;74.68;;;33.70;;
23148;SDS011;11743;51.228;22.498;2022-11-20T00:24:03;76.45;;;33.28;;
23148;SDS011;11743;51.228;22.498;2022-11-20T00:24:25;72.25;;;32.50;;
23148;SDS011;11743;51.228;22.498;2022-11-20T00:24:47;69.93;;;31.73;;
23148;SDS011;11743;51.228;22.498;2022-11-20T00:25:09;72.80;;;33.10;;
23148;SDS011;11743;51.228;22.498;2022-11-20T00:25:31;74.68;;;34.30;;
23148;SDS011;11743;51.228;22.498;2022-11-20T00:25:55;73.32;;;32.83;;
23148;SDS011;11743;51.228;22.498;2022-11-20T00:26:18;76.30;;;33.33;;
23148;SDS011;11743;51.228;22.498;2022-11-20T00:26:40;74.90;;;32.97;;
23148;SDS011;11743;51.228;22.498;2022-11-20T00:27:02;76.55;;;33.00;;
23148;SDS011;11743;51.228;22.498;2022-11-20T00:27:24;76.80;;;34.28;;
23148;SDS011;11743;51.228;22.498;2022-11-20T00:27:46;81.45;;;34.42;;
23148;SDS011;11743;51.228;22.498;2022-11-20T00:28:08;74.63;;;34.65;;
23148;SDS011;11743;51.228;22.498;2022-11-20T00:28:30;74.63;;;34.08;;
23148;SDS011;11743;51.228;22.498;2022-11-20T00:28:54;77.05;;;34.33;;
23148;SDS011;11743;51.228;22.498;2022-11-20T00:29:16;76.47;;;34.75;;
23148;SDS011;11743;51.228;22.498;2022-11-20T00:29:38;79.75;;;34.40;;
23148;SDS011;11743;51.228;22.498;2022-11-20T00:30:00;84.07;;;34.92;;
23148;SDS011;11743;51.228;22.498;2022-11-20T00:30:22;80.53;;;34.75;;
23148;SDS011;11743;51.228;22.498;2022-11-20T00:30:44;78.80;;;34.63;;
23148;SDS011;11743;51.228;22.498;2022-11-20T00:31:07;87.18;;;34.42;;
23148;SDS011;11743;51.228;22.498;2022-11-20T00:31:29;87.18;;;35.13;;
23148;SDS011;11743;51.228;22.498;2022-11-20T00:31:54;80.65;;;34.80;;
23148;SDS011;11743;51.228;22.498;2022-11-20T00:32:15;77.72;;;34.10;;
23148;SDS011;11743;51.228;22.498;2022-11-20T00:32:37;80.97;;;33.72;;
23148;SDS011;11743;51.228;22.498;2022-11-20T00:32:59;82.80;;;35.03;;
23148;SDS011;11743;51.228;22.498;2022-11-20T00:33:21;78.65;;;34.42;;
23148;SDS011;11743;51.228;22.498;2022-11-20T00:33:43;77.97;;;34.08;;
23148;SDS011;11743;51.228;22.498;2022-11-20T00:34:05;83.55;;;36.05;;
23148;SDS011;11743;51.228;22.498;2022-11-20T00:34:27;83.75;;;36.53;;
23148;SDS011;11743;51.228;22.498;2022-11-20T00:34:49;79.95;;;34.63;;
23148;SDS011;11743;51.228;22.498;2022-11-20T00:35:12;82.80;;;35.50;;
23148;SDS011;11743;51.228;22.498;2022-11-20T00:35:34;81.13;;;34.63;;
23148;SDS011;11743;51.228;22.498;2022-11-20T00:36:00;81.43;;;35.53;;
23148;SDS011;11743;51.228;22.498;2022-11-20T00:36:26;80.00;;;35.65;;
23148;SDS011;11743;51.228;22.498;2022-11-20T00:36:49;74.45;;;32.72;;
23148;SDS011;11743;51.228;22.498;2022-11-20T00:37:11;81.32;;;34.70;;
23148;SDS011;11743;51.228;22.498;2022-11-20T00:37:33;79.97;;;34.25;;
23148;SDS011;11743;51.228;22.498;2022-11-20T00:37:55;75.00;;;33.58;;
23148;SDS011;11743;51.228;22.498;2022-11-20T00:38:16;78.13;;;34.13;;
23148;SDS011;11743;51.228;22.498;2022-11-20T00:38:38;77.65;;;33.00;;
23148;SDS011;11743;51.228;22.498;2022-11-20T00:39:00;78.22;;;33.38;;
23148;SDS011;11743;51.228;22.498;2022-11-20T00:39:23;74.93;;;34.60;;
23148;SDS011;11743;51.228;22.498;2022-11-20T00:39:45;78.32;;;33.75;;
23148;SDS011;11743;51.228;22.498;2022-11-20T00:40:07;77.05;;;33.03;;
23148;SDS011;11743;51.228;22.498;2022-11-20T00:40:29;74.07;;;32.10;;
23148;SDS011;11743;51.228;22.498;2022-11-20T00:40:58;72.93;;;32.05;;
23148;SDS011;11743;51.228;22.498;2022-11-20T00:41:21;68.35;;;30.83;;
23148;SDS011;11743;51.228;22.498;2022-11-20T00:41:44;67.38;;;30.58;;
23148;SDS011;11743;51.228;22.498;2022-11-20T00:42:06;68.05;;;31.40;;
23148;SDS011;11743;51.228;22.498;2022-11-20T00:42:27;66.88;;;30.75;;
23148;SDS011;11743;51.228;22.498;2022-11-20T00:42:49;62.95;;;29.48;;
23148;SDS011;11743;51.228;22.498;2022-11-20T00:43:11;67.32;;;30.35;;
23148;SDS011;11743;51.228;22.498;2022-11-20T00:43:34;68.43;;;29.30;;
23148;SDS011;11743;51.228;22.498;2022-11-20T00:43:56;66.15;;;29.20;;
23148;SDS011;11743;51.228;22.498;2022-11-20T00:44:18;61.13;;;29.30;;
23148;SDS011;11743;51.228;22.498;2022-11-20T00:44:40;63.08;;;29.25;;
23148;SDS011;11743;51.228;22.498;2022-11-20T00:45:02;62.97;;;29.38;;
23148;SDS011;11743;51.228;22.498;2022-11-20T00:45:25;60.42;;;28.65;;
23148;SDS011;11743;51.228;22.498;2022-11-20T00:45:47;62.63;;;28.92;;
23148;SDS011;11743;51.228;22.498;2022-11-20T00:46:10;58.88;;;28.33;;
23148;SDS011;11743;51.228;22.498;2022-11-20T00:46:36;58.05;;;28.33;;
23148;SDS011;11743;51.228;22.498;2022-11-20T00:46:58;58.25;;;28.02;;
23148;SDS011;11743;51.228;22.498;2022-11-20T00:47:20;58.38;;;27.67;;
23148;SDS011;11743;51.228;22.498;2022-11-20T00:47:41;55.10;;;26.45;;
23148;SDS011;11743;51.228;22.498;2022-11-20T00:48:03;58.47;;;26.95;;
23148;SDS011;11743;51.228;22.498;2022-11-20T00:48:25;57.67;;;27.80;;
23148;SDS011;11743;51.228;22.498;2022-11-20T00:48:48;59.10;;;28.05;;
23148;SDS011;11743;51.228;22.498;2022-11-20T00:49:10;60.78;;;28.48;;
23148;SDS011;11743;51.228;22.498;2022-11-20T00:49:32;58.20;;;27.63;;
23148;SDS011;11743;51.228;22.498;2022-11-20T00:49:54;60.25;;;27.88;;
23148;SDS011;11743;51.228;22.498;2022-11-20T00:50:16;54.20;;;27.42;;
23148;SDS011;11743;51.228;22.498;2022-11-20T00:50:38;54.13;;;27.20;;
23148;SDS011;11743;51.228;22.498;2022-11-20T00:51:01;58.40;;;27.33;;
23148;SDS011;11743;51.228;22.498;2022-11-20T00:51:24;55.00;;;26.60;;
23148;SDS011;11743;51.228;22.498;2022-11-20T00:51:47;56.85;;;27.35;;
23148;SDS011;11743;51.228;22.498;2022-11-20T00:52:09;60.15;;;27.58;;
23148;SDS011;11743;51.228;22.498;2022-11-20T00:52:31;58.92;;;27.15;;
23148;SDS011;11743;51.228;22.498;2022-11-20T00:52:53;59.92;;;27.83;;
23148;SDS011;11743;51.228;22.498;2022-11-20T00:53:15;53.67;;;26.58;;
23148;SDS011;11743;51.228;22.498;2022-11-20T00:53:37;58.53;;;28.08;;
23148;SDS011;11743;51.228;22.498;2022-11-20T00:53:59;55.53;;;27.17;;
23148;SDS011;11743;51.228;22.498;2022-11-20T00:54:21;59.60;;;28.70;;
23148;SDS011;11743;51.228;22.498;2022-11-20T00:54:43;60.90;;;28.25;;
23148;SDS011;11743;51.228;22.498;2022-11-20T00:55:05;57.83;;;27.60;;
23148;SDS011;11743;51.228;22.498;2022-11-20T00:55:28;60.30;;;27.95;;
23148;SDS011;11743;51.228;22.498;2022-11-20T00:55:57;61.83;;;28.65;;
23148;SDS011;11743;51.228;22.498;2022-11-20T00:56:19;57.13;;;28.05;;
23148;SDS011;11743;51.228;22.498;2022-11-20T00:56:41;56.85;;;28.80;;
23148;SDS011;11743;51.228;22.498;2022-11-20T00:57:03;53.33;;;27.70;;
23148;SDS011;11743;51.228;22.498;2022-11-20T00:57:25;54.20;;;27.33;;
23148;SDS011;11743;51.228;22.498;2022-11-20T00:57:47;57.47;;;27.60;;
23148;SDS011;11743;51.228;22.498;2022-11-20T00:58:09;57.63;;;27.95;;
23148;SDS011;11743;51.228;22.498;2022-11-20T00:58:35;57.60;;;28.52;;
23148;SDS011;11743;51.228;22.498;2022-11-20T00:58:59;55.15;;;27.98;;
23148;SDS011;11743;51.228;22.498;2022-11-20T00:59:21;58.47;;;27.88;;
23148;SDS011;11743;51.228;22.498;2022-11-20T00:59:44;55.90;;;27.45;;
23148;SDS011;11743;51.228;22.498;2022-11-20T01:00:06;55.50;;;27.58;;
23148;SDS011;11743;51.228;22.498;2022-11-20T01:00:28;61.65;;;28.70;;
23148;SDS011;11743;51.228;22.498;2022-11-20T01:00:50;59.35;;;28.60;;
23148;SDS011;11743;51.228;22.498;2022-11-20T01:01:13;57.90;;;27.02;;
23148;SDS011;11743;51.228;22.498;2022-11-20T01:01:36;56.47;;;27.02;;
23148;SDS011;11743;51.228;22.498;2022-11-20T01:01:59;57.60;;;27.27;;
23148;SDS011;11743;51.228;22.498;2022-11-20T01:02:21;60.63;;;27.60;;
23148;SDS011;11743;51.228;22.498;2022-11-20T01:02:43;57.92;;;27.00;;
23148;SDS011;11743;51.228;22.498;2022-11-20T01:03:04;57.60;;;27.92;;
23148;SDS011;11743;51.228;22.498;2022-11-20T01:03:26;58.83;;;28.88;;
23148;SDS011;11743;51.228;22.498;2022-11-20T01:03:49;59.58;;;27.92;;
23148;SDS011;11743;51.228;22.498;2022-11-20T01:04:12;58.13;;;27.92;;
23148;SDS011;11743;51.228;22.498;2022-11-20T01:04:34;58.28;;;27.83;;
23148;SDS011;11743;51.228;22.498;2022-11-20T01:04:56;56.83;;;28.35;;
23148;SDS011;11743;51.228;22.498;2022-11-20T01:05:18;57.65;;;28.40;;
23148;SDS011;11743;51.228;22.498;2022-11-20T01:05:40;60.35;;;29.52;;
23148;SDS011;11743;51.228;22.498;2022-11-20T01:06:04;59.75;;;28.73;;
23148;SDS011;11743;51.228;22.498;2022-11-20T01:06:28;57.42;;;28.10;;
23148;SDS011;11743;51.228;22.498;2022-11-20T01:06:54;59.45;;;28.80;;
23148;SDS011;11743;51.228;22.498;2022-11-20T01:07:16;60.40;;;29.33;;
23148;SDS011;11743;51.228;22.498;2022-11-20T01:07:39;60.42;;;30.17;;
23148;SDS011;11743;51.228;22.498;2022-11-20T01:08:01;64.75;;;33.00;;
23148;SDS011;11743;51.228;22.498;2022-11-20T01:08:23;63.28;;;32.03;;
23148;SDS011;11743;51.228;22.498;2022-11-20T01:08:45;62.03;;;31.63;;
23148;SDS011;11743;51.228;22.498;2022-11-20T01:09:11;64.07;;;31.48;;
23148;SDS011;11743;51.228;22.498;2022-11-20T01:09:34;65.00;;;32.42;;
23148;SDS011;11743;51.228;22.498;2022-11-20T01:09:56;62.80;;;32.65;;
23148;SDS011;11743;51.228;22.498;2022-11-20T01:10:18;65.07;;;31.70;;
23148;SDS011;11743;51.228;22.498;2022-11-20T01:10:40;62.20;;;30.80;;
23148;SDS011;11743;51.228;22.498;2022-11-20T01:11:04;63.65;;;31.50;;
23148;SDS011;11743;51.228;22.498;2022-11-20T01:11:27;62.58;;;31.25;;
23148;SDS011;11743;51.228;22.498;2022-11-20T01:11:50;61.13;;;30.65;;
23148;SDS011;11743;51.228;22.498;2022-11-20T01:12:13;63.08;;;32.25;;
23148;SDS011;11743;51.228;22.498;2022-11-20T01:12:35;59.80;;;30.90;;
23148;SDS011;11743;51.228;22.498;2022-11-20T01:12:57;62.47;;;31.70;;
23148;SDS011;11743;51.228;22.498;2022-11-20T01:13:45;62.35;;;31.17;;
23148;SDS011;11743;51.228;22.498;2022-11-20T01:14:12;66.22;;;31.08;;
23148;SDS011;11743;51.228;22.498;2022-11-20T01:14:36;62.88;;;31.55;;
23148;SDS011;11743;51.228;22.498;2022-11-20T01:14:58;63.50;;;31.77;;
23148;SDS011;11743;51.228;22.498;2022-11-20T01:15:20;60.67;;;31.45;;
23148;SDS011;11743;51.228;22.498;2022-11-20T01:15:42;60.78;;;31.90;;
23148;SDS011;11743;51.228;22.498;2022-11-20T01:16:14;59.95;;;31.65;;
23148;SDS011;11743;51.228;22.498;2022-11-20T01:16:38;61.20;;;30.83;;
23148;SDS011;11743;51.228;22.498;2022-11-20T01:17:10;62.78;;;32.45;;
23148;SDS011;11743;51.228;22.498;2022-11-20T01:17:32;60.70;;;32.03;;
23148;SDS011;11743;51.228;22.498;2022-11-20T01:17:54;64.70;;;32.55;;
23148;SDS011;11743;51.228;22.498;2022-11-20T01:18:16;69.25;;;32.05;;
23148;SDS011;11743;51.228;22.498;2022-11-20T01:18:40;69.30;;;33.80;;
23148;SDS011;11743;51.228;22.498;2022-11-20T01:19:05;66.35;;;33.13;;
23148;SDS011;11743;51.228;22.498;2022-11-20T01:19:33;65.13;;;33.05;;
23148;SDS011;11743;51.228;22.498;2022-11-20T01:19:54;67.28;;;33.20;;
23148;SDS011;11743;51.228;22.498;2022-11-20T01:20:16;67.65;;;34.22;;
23148;SDS011;11743;51.228;22.498;2022-11-20T01:20:39;65.72;;;33.42;;
23148;SDS011;11743;51.228;22.498;2022-11-20T01:21:04;67.10;;;33.63;;
23148;SDS011;11743;51.228;22.498;2022-11-20T01:21:34;63.20;;;32.85;;
23148;SDS011;11743;51.228;22.498;2022-11-20T01:21:57;63.33;;;33.00;;
23148;SDS011;11743;51.228;22.498;2022-11-20T01:22:19;63.60;;;32.83;;
23148;SDS011;11743;51.228;22.498;2022-11-20T01:22:41;64.13;;;32.63;;
23148;SDS011;11743;51.228;22.498;2022-11-20T01:23:03;62.65;;;31.95;;
23148;SDS011;11743;51.228;22.498;2022-11-20T01:23:25;62.45;;;31.80;;
23148;SDS011;11743;51.228;22.498;2022-11-20T01:23:47;63.90;;;32.13;;
23148;SDS011;11743;51.228;22.498;2022-11-20T01:24:13;61.28;;;31.20;;
23148;SDS011;11743;51.228;22.498;2022-11-20T01:24:36;64.13;;;32.45;;
23148;SDS011;11743;51.228;22.498;2022-11-20T01:24:58;59.63;;;31.70;;
23148;SDS011;11743;51.228;22.498;2022-11-20T01:25:19;59.15;;;31.17;;
23148;SDS011;11743;51.228;22.498;2022-11-20T01:25:41;61.38;;;32.45;;
23148;SDS011;11743;51.228;22.498;2022-11-20T01:26:05;60.90;;;32.63;;
23148;SDS011;11743;51.228;22.498;2022-11-20T01:26:30;62.22;;;31.98;;
23148;SDS011;11743;51.228;22.498;2022-11-20T01:26:52;64.45;;;32.78;;
23148;SDS011;11743;51.228;22.498;2022-11-20T01:27:14;63.88;;;33.35;;
23148;SDS011;11743;51.228;22.498;2022-11-20T01:27:36;58.05;;;31.08;;
23148;SDS011;11743;51.228;22.498;2022-11-20T01:27:58;60.33;;;30.20;;
23148;SDS011;11743;51.228;22.498;2022-11-20T01:28:20;62.65;;;30.48;;
23148;SDS011;11743;51.228;22.498;2022-11-20T01:28:42;63.92;;;31.15;;
23148;SDS011;11743;51.228;22.498;2022-11-20T01:29:05;62.35;;;30.55;;
23148;SDS011;11743;51.228;22.498;2022-11-20T01:29:28;54.75;;;29.85;;
23148;SDS011;11743;51.228;22.498;2022-11-20T01:29:49;56.80;;;30.45;;
23148;SDS011;11743;51.228;22.498;2022-11-20T01:30:11;58.28;;;30.25;;
23148;SDS011;11743;51.228;22.498;2022-11-20T01:30:33;57.55;;;29.38;;
23148;SDS011;11743;51.228;22.498;2022-11-20T01:30:55;55.58;;;28.85;;
23148;SDS011;11743;51.228;22.498;2022-11-20T01:31:20;56.95;;;29.83;;
23148;SDS011;11743;51.228;22.498;2022-11-20T01:31:43;57.88;;;29.73;;
23148;SDS011;11743;51.228;22.498;2022-11-20T01:32:05;55.40;;;29.08;;
23148;SDS011;11743;51.228;22.498;2022-11-20T01:32:27;55.30;;;29.42;;
23148;SDS011;11743;51.228;22.498;2022-11-20T01:32:49;55.70;;;28.80;;
23148;SDS011;11743;51.228;22.498;2022-11-20T01:33:10;53.10;;;28.25;;
23148;SDS011;11743;51.228;22.498;2022-11-20T01:33:33;54.72;;;28.27;;
23148;SDS011;11743;51.228;22.498;2022-11-20T01:33:56;55.20;;;28.13;;
23148;SDS011;11743;51.228;22.498;2022-11-20T01:34:19;51.35;;;27.50;;
23148;SDS011;11743;51.228;22.498;2022-11-20T01:34:43;52.35;;;28.13;;
23148;SDS011;11743;51.228;22.498;2022-11-20T01:35:05;53.25;;;28.40;;
23148;SDS011;11743;51.228;22.498;2022-11-20T01:35:27;55.70;;;28.05;;
23148;SDS011;11743;51.228;22.498;2022-11-20T01:35:49;51.85;;;27.15;;
23148;SDS011;11743;51.228;22.498;2022-11-20T01:36:12;52.85;;;27.23;;
23148;SDS011;11743;51.228;22.498;2022-11-20T01:36:35;52.95;;;27.05;;
23148;SDS011;11743;51.228;22.498;2022-11-20T01:36:58;56.63;;;27.70;;
23148;SDS011;11743;51.228;22.498;2022-11-20T01:37:20;52.03;;;27.30;;
23148;SDS011;11743;51.228;22.498;2022-11-20T01:37:42;51.67;;;27.38;;
23148;SDS011;11743;51.228;22.498;2022-11-20T01:38:04;49.70;;;27.73;;
23148;SDS011;11743;51.228;22.498;2022-11-20T01:38:26;50.83;;;27.48;;
23148;SDS011;11743;51.228;22.498;2022-11-20T01:38:51;50.55;;;27.63;;
23148;SDS011;11743;51.228;22.498;2022-11-20T01:39:18;45.97;;;26.15;;
23148;SDS011;11743;51.228;22.498;2022-11-20T01:39:41;49.05;;;27.33;;
23148;SDS011;11743;51.228;22.498;2022-11-20T01:40:02;48.60;;;25.70;;
23148;SDS011;11743;51.228;22.498;2022-11-20T01:40:25;47.08;;;25.58;;
23148;SDS011;11743;51.228;22.498;2022-11-20T01:40:53;45.35;;;25.15;;
23148;SDS011;11743;51.228;22.498;2022-11-20T01:41:16;49.85;;;25.77;;
23148;SDS011;11743;51.228;22.498;2022-11-20T01:41:58;50.13;;;25.40;;
23148;SDS011;11743;51.228;22.498;2022-11-20T01:42:44;50.10;;;26.17;;
23148;SDS011;11743;51.228;22.498;2022-11-20T01:43:31;45.47;;;25.15;;
23148;SDS011;11743;51.228;22.498;2022-11-20T01:43:53;46.25;;;24.98;;
23148;SDS011;11743;51.228;22.498;2022-11-20T01:44:16;46.10;;;24.65;;
23148;SDS011;11743;51.228;22.498;2022-11-20T01:44:43;47.30;;;24.45;;
23148;SDS011;11743;51.228;22.498;2022-11-20T01:46:26;46.78;;;24.70;;
23148;SDS011;11743;51.228;22.498;2022-11-20T01:47:18;46.67;;;24.33;;
23148;SDS011;11743;51.228;22.498;2022-11-20T01:47:48;48.70;;;25.20;;
23148;SDS011;11743;51.228;22.498;2022-11-20T01:48:11;48.80;;;25.02;;
23148;SDS011;11743;51.228;22.498;2022-11-20T01:48:38;43.53;;;24.15;;
23148;SDS011;11743;51.228;22.498;2022-11-20T01:50:18;45.38;;;25.35;;
23148;SDS011;11743;51.228;22.498;2022-11-20T01:50:45;44.08;;;24.80;;
23148;SDS011;11743;51.228;22.498;2022-11-20T01:51:10;48.70;;;24.10;;
23148;SDS011;11743;51.228;22.498;2022-11-20T01:51:47;49.80;;;25.13;;
23148;SDS011;11743;51.228;22.498;2022-11-20T01:52:16;43.58;;;23.77;;
23148;SDS011;11743;51.228;22.498;2022-11-20T01:52:41;45.20;;;24.63;;
23148;SDS011;11743;51.228;22.498;2022-11-20T01:53:05;46.80;;;25.08;;
23148;SDS011;11743;51.228;22.498;2022-11-20T01:53:32;43.65;;;24.15;;
23148;SDS011;11743;51.228;22.498;2022-11-20T01:53:58;46.70;;;24.80;;
23148;SDS011;11743;51.228;22.498;2022-11-20T01:54:25;45.72;;;24.38;;
23148;SDS011;11743;51.228;22.498;2022-11-20T01:55:01;46.53;;;24.52;;
23148;SDS011;11743;51.228;22.498;2022-11-20T01:55:30;46.67;;;25.38;;
23148;SDS011;11743;51.228;22.498;2022-11-20T01:55:53;42.13;;;24.23;;
23148;SDS011;11743;51.228;22.498;2022-11-20T01:56:16;43.78;;;23.55;;
23148;SDS011;11743;51.228;22.498;2022-11-20T01:56:40;49.60;;;25.33;;
23148;SDS011;11743;51.228;22.498;2022-11-20T01:57:03;47.80;;;24.70;;
23148;SDS011;11743;51.228;22.498;2022-11-20T01:57:27;48.95;;;24.55;;
23148;SDS011;11743;51.228;22.498;2022-11-20T01:57:51;45.33;;;24.17;;
23148;SDS011;11743;51.228;22.498;2022-11-20T01:58:14;47.10;;;24.65;;
23148;SDS011;11743;51.228;22.498;2022-11-20T01:58:38;44.63;;;24.63;;
23148;SDS011;11743;51.228;22.498;2022-11-20T01:59:04;45.05;;;24.95;;
23148;SDS011;11743;51.228;22.498;2022-11-20T01:59:27;45.38;;;24.40;;
23148;SDS011;11743;51.228;22.498;2022-11-20T01:59:52;45.72;;;24.27;;
23148;SDS011;11743;51.228;22.498;2022-11-20T02:00:16;43.85;;;23.77;;
23148;SDS011;11743;51.228;22.498;2022-11-20T02:00:40;45.03;;;24.63;;
23148;SDS011;11743;51.228;22.498;2022-11-20T02:01:02;45.05;;;24.73;;
23148;SDS011;11743;51.228;22.498;2022-11-20T02:01:24;44.80;;;24.90;;
23148;SDS011;11743;51.228;22.498;2022-11-20T02:01:47;43.88;;;23.90;;
23148;SDS011;11743;51.228;22.498;2022-11-20T02:02:09;43.50;;;24.45;;
23148;SDS011;11743;51.228;22.498;2022-11-20T02:02:30;42.60;;;24.38;;
23148;SDS011;11743;51.228;22.498;2022-11-20T02:02:53;49.75;;;25.70;;
23148;SDS011;11743;51.228;22.498;2022-11-20T02:03:19;41.75;;;23.90;;
23148;SDS011;11743;51.228;22.498;2022-11-20T02:03:41;42.30;;;23.90;;
23148;SDS011;11743;51.228;22.498;2022-11-20T02:04:06;43.63;;;23.60;;
23148;SDS011;11743;51.228;22.498;2022-11-20T02:04:29;42.97;;;23.42;;
23148;SDS011;11743;51.228;22.498;2022-11-20T02:04:51;42.05;;;23.48;;
23148;SDS011;11743;51.228;22.498;2022-11-20T02:05:30;42.13;;;23.08;;
23148;SDS011;11743;51.228;22.498;2022-11-20T02:06:04;42.50;;;22.92;;
23148;SDS011;11743;51.228;22.498;2022-11-20T02:06:48;41.30;;;23.35;;
23148;SDS011;11743;51.228;22.498;2022-11-20T02:07:12;47.85;;;24.88;;
23148;SDS011;11743;51.228;22.498;2022-11-20T02:07:35;48.03;;;24.90;;
23148;SDS011;11743;51.228;22.498;2022-11-20T02:07:58;46.00;;;24.17;;
23148;SDS011;11743;51.228;22.498;2022-11-20T02:08:20;45.00;;;24.52;;
23148;SDS011;11743;51.228;22.498;2022-11-20T02:08:43;44.05;;;23.90;;
23148;SDS011;11743;51.228;22.498;2022-11-20T02:09:05;44.67;;;23.92;;
23148;SDS011;11743;51.228;22.498;2022-11-20T02:09:27;45.70;;;23.10;;
23148;SDS011;11743;51.228;22.498;2022-11-20T02:09:50;46.55;;;24.08;;
23148;SDS011;11743;51.228;22.498;2022-11-20T02:10:18;44.05;;;23.95;;
23148;SDS011;11743;51.228;22.498;2022-11-20T02:10:40;44.92;;;23.75;;
23148;SDS011;11743;51.228;22.498;2022-11-20T02:11:03;45.05;;;24.17;;
23148;SDS011;11743;51.228;22.498;2022-11-20T02:11:25;41.78;;;24.17;;
23148;SDS011;11743;51.228;22.498;2022-11-20T02:11:47;43.03;;;23.83;;
23148;SDS011;11743;51.228;22.498;2022-11-20T02:12:09;44.42;;;23.67;;
23148;SDS011;11743;51.228;22.498;2022-11-20T02:12:52;41.92;;;23.20;;
23148;SDS011;11743;51.228;22.498;2022-11-20T02:13:33;44.25;;;23.40;;
23148;SDS011;11743;51.228;22.498;2022-11-20T02:14:04;43.25;;;23.52;;
23148;SDS011;11743;51.228;22.498;2022-11-20T02:14:26;42.90;;;23.92;;
23148;SDS011;11743;51.228;22.498;2022-11-20T02:14:49;43.95;;;24.05;;
23148;SDS011;11743;51.228;22.498;2022-11-20T02:15:11;46.00;;;25.10;;
23148;SDS011;11743;51.228;22.498;2022-11-20T02:15:33;45.20;;;25.00;;
23148;SDS011;11743;51.228;22.498;2022-11-20T02:15:55;45.90;;;24.70;;
23148;SDS011;11743;51.228;22.498;2022-11-20T02:16:24;48.47;;;25.20;;
23148;SDS011;11743;51.228;22.498;2022-11-20T02:16:48;50.63;;;25.98;;
23148;SDS011;11743;51.228;22.498;2022-11-20T02:17:11;47.40;;;24.67;;
23148;SDS011;11743;51.228;22.498;2022-11-20T02:17:33;45.42;;;24.70;;
23148;SDS011;11743;51.228;22.498;2022-11-20T02:17:55;44.65;;;24.92;;
23148;SDS011;11743;51.228;22.498;2022-11-20T02:18:17;46.42;;;25.75;;
23148;SDS011;11743;51.228;22.498;2022-11-20T02:18:41;48.55;;;25.38;;
23148;SDS011;11743;51.228;22.498;2022-11-20T02:19:04;49.78;;;26.42;;